Time;durP1;ratioP1;P1;durP2;ratioP2;P2;SDS_P1;SDS_P2;PMS_P1;PMS_P2;Temp;Humidity;BMP_temperature;BMP_pressure;BME280_temperature;BME280_humidity;BME280_pressure;Samples;Min_cycle;Max_cycle;Signal;HPM_P1;HPM_P2
2023/01/31 00:00:46;;;;;;;19.17;17.33;;;;;;;20.55;30.47;94519.44;6093446;28;109442;-63
2023/01/31 00:03:54;;;;;;;19.53;17.73;;;;;;;20.53;30.25;94522.41;6091854;28;109428;-63
2023/01/31 00:06:57;;;;;;;19.73;17.80;;;;;;;20.55;30.04;94530.09;6087641;28;109071;-63
2023/01/31 00:10:00;;;;;;;18.83;17.13;;;;;;;20.50;30.00;94533.66;6091881;28;110357;-63
2023/01/31 00:13:03;;;;;;;17.80;16.20;;;;;;;20.53;30.40;94538.38;6101409;28;109516;-63
2023/01/31 00:16:07;;;;;;;18.00;16.30;;;;;;;20.55;30.03;94546.03;6080316;28;110891;-63
2023/01/31 00:19:12;;;;;;;17.53;15.83;;;;;;;20.55;30.39;94535.41;6092549;28;109385;-63
2023/01/31 00:22:15;;;;;;;18.13;16.43;;;;;;;20.52;30.46;94530.69;6079472;28;110020;-63
2023/01/31 00:25:18;;;;;;;17.33;15.63;;;;;;;20.50;30.31;94515.06;6100229;28;109387;-63
2023/01/31 00:28:21;;;;;;;17.40;15.67;;;;;;;20.45;30.35;94499.25;6075962;28;110285;-63
2023/01/31 00:31:27;;;;;;;17.60;15.67;;;;;;;20.55;30.39;94520.22;6082713;28;109423;-63
2023/01/31 00:34:32;;;;;;;18.17;16.47;;;;;;;20.57;30.35;94518.03;6081554;28;110007;-63
2023/01/31 00:37:35;;;;;;;16.40;14.90;;;;;;;20.54;30.33;94524.00;6095528;28;109174;-63
2023/01/31 00:40:38;;;;;;;15.80;14.40;;;;;;;20.54;30.21;94531.97;6070194;28;109307;-63
2023/01/31 00:43:41;;;;;;;15.23;13.83;;;;;;;20.56;30.32;94536.97;6090755;28;109195;-63
2023/01/31 00:46:47;;;;;;;17.13;15.43;;;;;;;20.54;30.35;94531.97;6077322;28;109010;-63
2023/01/31 00:49:52;;;;;;;15.50;14.10;;;;;;;20.52;30.29;94528.81;6075795;28;108839;-63
2023/01/31 00:52:55;;;;;;;16.13;14.63;;;;;;;20.54;30.50;94536.50;6101234;28;109928;-63
2023/01/31 00:56:03;;;;;;;16.00;14.10;;;;;;;20.54;30.29;94529.31;6089805;28;109659;-62
2023/01/31 00:59:07;;;;;;;15.80;14.37;;;;;;;20.54;30.10;94521.31;6076766;28;109247;-63
2023/01/31 01:02:10;;;;;;;14.67;13.27;;;;;;;20.53;30.34;94519.75;6078242;28;110057;-63
2023/01/31 01:05:15;;;;;;;15.47;13.97;;;;;;;20.53;30.39;94516.31;6096699;28;109133;-62
2023/01/31 01:08:18;;;;;;;15.70;13.23;;;;;;;20.53;30.34;94516.31;6071339;28;109228;-63
2023/01/31 01:11:23;;;;;;;15.47;13.97;;;;;;;20.51;30.39;94519.28;6066563;28;109357;-62
2023/01/31 01:14:26;;;;;;;16.07;14.60;;;;;;;20.53;30.31;94521.63;6076960;28;110287;-63
2023/01/31 01:17:32;;;;;;;15.80;14.20;;;;;;;20.54;30.34;94528.53;6077006;28;109339;-62
2023/01/31 01:20:38;;;;;;;15.30;13.90;;;;;;;20.51;30.32;94527.25;6072748;28;110275;-64
2023/01/31 01:23:42;;;;;;;14.90;13.50;;;;;;;20.52;30.41;94531.50;6084540;28;109231;-63
2023/01/31 01:26:45;;;;;;;14.67;13.30;;;;;;;20.53;30.23;94519.75;6077663;28;109223;-62
2023/01/31 01:29:48;;;;;;;15.30;13.90;;;;;;;20.51;30.40;94511.31;6080430;28;110067;-64
2023/01/31 01:32:54;;;;;;;14.40;13.00;;;;;;;20.50;30.28;94519.56;6089300;28;109403;-64
2023/01/31 01:36:01;;;;;;;14.67;13.17;;;;;;;20.52;30.27;94512.88;6078895;28;109782;-62
2023/01/31 01:39:08;;;;;;;14.33;12.93;;;;;;;20.51;30.26;94510.53;6065573;28;109687;-62
2023/01/31 01:42:15;;;;;;;15.33;13.80;;;;;;;20.40;30.49;94485.31;6077837;28;109206;-62
2023/01/31 01:45:18;;;;;;;14.63;13.27;;;;;;;20.52;30.30;94496.16;6077725;28;109125;-63
2023/01/31 01:48:25;;;;;;;14.27;12.83;;;;;;;20.53;30.29;94500.38;6091612;28;109281;-62
2023/01/31 01:51:34;;;;;;;14.70;13.40;;;;;;;20.53;30.29;94508.34;6072065;28;109380;-62
2023/01/31 01:54:45;;;;;;;14.57;13.13;;;;;;;20.52;30.12;94491.63;6102778;28;108697;-62
2023/01/31 01:57:52;;;;;;;13.77;12.37;;;;;;;20.51;30.34;94491.94;6081953;28;110083;-63
2023/01/31 02:00:55;;;;;;;12.97;11.77;;;;;;;20.50;30.18;94499.13;6088374;28;109362;-63
2023/01/31 02:03:59;;;;;;;14.50;13.10;;;;;;;20.46;30.61;94489.41;6081652;28;109150;-63
2023/01/31 02:07:04;;;;;;;14.27;12.83;;;;;;;20.43;30.21;94484.69;6093884;28;109117;-63
2023/01/31 02:10:12;;;;;;;13.27;12.00;;;;;;;20.52;30.41;94488.19;6085252;28;111842;-63
2023/01/31 02:13:16;;;;;;;13.73;12.43;;;;;;;20.50;30.41;94487.69;6094175;28;110313;-63
2023/01/31 02:16:19;;;;;;;12.33;11.20;;;;;;;20.38;30.31;94479.53;6085122;28;109160;-62
2023/01/31 02:19:35;;;;;;;13.20;11.90;;;;;;;20.54;30.40;94488.66;6105042;28;109065;-62
2023/01/31 02:22:46;;;;;;;12.60;11.40;;;;;;;20.53;30.37;94489.75;6101261;28;109273;-62
2023/01/31 02:26:31;;;;;;;13.13;11.83;;;;;;;20.53;30.27;94493.19;6078297;28;109123;-62
2023/01/31 02:30:08;;;;;;;10.80;9.80;;;;;;;20.42;30.21;94481.25;6062102;28;109157;-63
2023/01/31 02:33:21;;;;;;;11.77;10.67;;;;;;;20.53;30.56;94495.06;6083059;28;109275;-63
2023/01/31 02:36:35;;;;;;;11.20;10.10;;;;;;;20.49;30.45;94483.47;6078374;28;110154;-63
2023/01/31 02:39:43;;;;;;;11.47;10.37;;;;;;;20.54;30.26;94497.41;6104980;28;109333;-63
2023/01/31 02:42:55;;;;;;;12.03;10.87;;;;;;;20.55;30.21;94495.53;6086790;28;109081;-63
2023/01/31 02:46:05;;;;;;;10.70;9.80;;;;;;;20.54;30.30;94491.31;6087974;28;110273;-63
2023/01/31 02:49:33;;;;;;;12.27;11.07;;;;;;;20.46;30.20;94484.84;6089400;28;109109;-63
2023/01/31 02:52:45;;;;;;;10.73;9.63;;;;;;;20.55;30.38;94493.66;6084221;28;109057;-63
2023/01/31 02:59:27;;;;;;;9.90;9.00;;;;;;;20.51;30.40;94499.91;6067283;28;112025;-64
2023/01/31 03:02:30;;;;;;;10.23;9.27;;;;;;;20.50;30.35;94509.75;6100046;28;109872;-64
2023/01/31 03:05:35;;;;;;;9.90;9.00;;;;;;;20.52;30.36;94520.84;6100668;28;110312;-64
2023/01/31 03:08:39;;;;;;;10.00;9.00;;;;;;;20.56;30.34;94529.00;6076587;28;108972;-64
2023/01/31 03:11:52;;;;;;;10.40;9.30;;;;;;;20.54;30.43;94536.50;6095193;28;109859;-64
2023/01/31 03:15:07;;;;;;;9.17;8.33;;;;;;;20.55;30.32;94552.13;6094408;28;110549;-64
2023/01/31 03:18:14;;;;;;;9.70;8.80;;;;;;;20.55;30.28;94551.34;6099133;28;112123;-64
2023/01/31 03:21:26;;;;;;;9.63;8.47;;;;;;;20.46;30.33;94547.88;6092565;28;110246;-63
2023/01/31 03:24:30;;;;;;;9.70;8.70;;;;;;;20.53;30.20;94550.88;6095192;28;110138;-65
2023/01/31 03:27:34;;;;;;;8.47;7.67;;;;;;;20.54;30.08;94555.88;6094645;28;110487;-63
2023/01/31 03:30:45;;;;;;;10.03;9.00;;;;;;;20.55;30.24;94559.31;6072064;28;110080;-63
2023/01/31 03:33:52;;;;;;;8.90;8.10;;;;;;;20.55;30.30;94567.28;6077118;28;109131;-63
2023/01/31 03:37:04;;;;;;;9.23;8.37;;;;;;;20.45;30.17;94556.94;6085136;28;109672;-64
2023/01/31 03:40:14;;;;;;;9.03;8.13;;;;;;;20.47;30.23;94563.50;6084969;28;109334;-64
2023/01/31 03:43:25;;;;;;;9.10;8.20;;;;;;;20.47;30.19;94568.81;6068150;28;109079;-64
2023/01/31 03:46:35;;;;;;;8.33;7.53;;;;;;;20.55;30.08;94599.97;6093768;28;112552;-64
2023/01/31 03:49:41;;;;;;;9.80;7.90;;;;;;;20.52;30.15;94591.84;6084088;28;109105;-64
2023/01/31 03:52:52;;;;;;;9.33;8.43;;;;;;;20.55;30.21;94605.28;6054650;28;110595;-64
2023/01/31 03:55:59;;;;;;;7.80;7.10;;;;;;;20.55;30.04;94593.88;6094275;28;110323;-64
2023/01/31 03:59:08;;;;;;;8.30;7.50;;;;;;;20.54;30.20;94598.41;6091713;28;109280;-64
2023/01/31 04:02:16;;;;;;;7.73;7.03;;;;;;;20.55;30.19;94607.94;6092098;28;109185;-64
2023/01/31 04:05:29;;;;;;;8.30;7.60;;;;;;;20.43;30.19;94585.69;6087586;28;109338;-64
2023/01/31 04:08:36;;;;;;;8.37;7.47;;;;;;;20.55;30.07;94596.53;6090561;28;109135;-64
2023/01/31 04:11:41;;;;;;;7.47;6.77;;;;;;;20.55;30.02;94599.97;6086739;28;109291;-64
2023/01/31 04:14:44;;;;;;;7.60;6.90;;;;;;;20.54;30.22;94598.41;6082162;28;111265;-64
2023/01/31 04:17:47;;;;;;;8.07;7.20;;;;;;;20.57;30.22;94610.31;6094355;28;109913;-64
2023/01/31 04:20:50;;;;;;;7.47;6.77;;;;;;;20.58;30.18;94610.00;6095499;28;109151;-62
2023/01/31 04:23:54;;;;;;;8.03;7.23;;;;;;;20.04;29.64;94621.69;6079518;28;110007;-61
2023/01/31 04:26:57;;;;;;;8.60;7.80;;;;;;;20.02;30.96;94608.72;6081170;28;108879;-61
2023/01/31 04:30:01;;;;;;;9.10;8.30;;;;;;;20.15;31.70;94595.66;6110726;28;109329;-61
2023/01/31 04:33:04;;;;;;;9.97;8.40;;;;;;;20.24;31.49;94597.31;6097291;28;109474;-61
2023/01/31 04:36:08;;;;;;;8.80;7.90;;;;;;;20.40;29.58;94616.31;6099797;28;110462;-60
2023/01/31 04:39:14;;;;;;;8.87;7.80;;;;;;;20.48;28.36;94614.78;6093564;28;110978;-60
2023/01/31 04:42:20;;;;;;;9.73;8.80;;;;;;;20.54;27.63;94630.31;6105048;28;110498;-61
2023/01/31 04:45:23;;;;;;;9.43;8.37;;;;;;;20.51;27.86;94638.13;6111170;28;110126;-61
2023/01/31 04:48:26;;;;;;;8.13;7.33;;;;;;;20.40;27.68;94636.78;6093565;28;109532;-62
2023/01/31 04:51:31;;;;;;;9.93;8.90;;;;;;;20.28;27.75;94648.75;6087434;28;109332;-62
2023/01/31 04:54:36;;;;;;;9.00;8.10;;;;;;;20.20;27.36;94646.81;6089114;28;109020;-61
2023/01/31 04:57:39;;;;;;;8.23;7.43;;;;;;;20.47;27.78;94647.75;6088801;28;109736;-62
2023/01/31 05:00:43;;;;;;;9.27;8.37;;;;;;;20.81;27.17;94645.25;6057611;28;110331;-61
2023/01/31 05:03:47;;;;;;;8.47;7.57;;;;;;;21.04;27.39;94661.97;6083417;28;110051;-62
2023/01/31 05:06:50;;;;;;;10.07;9.10;;;;;;;20.85;27.62;94653.44;6081668;28;108883;-62
2023/01/31 05:09:57;;;;;;;8.83;7.87;;;;;;;20.96;27.75;94648.63;6083447;28;109259;-62
2023/01/31 05:13:00;;;;;;;7.97;7.17;;;;;;;21.07;28.00;94650.72;6072362;28;111381;-61
2023/01/31 05:16:03;;;;;;;7.87;7.07;;;;;;;21.09;28.18;94653.84;6081075;28;110164;-61
2023/01/31 05:19:07;;;;;;;8.37;7.40;;;;;;;21.13;28.46;94662.00;6088678;28;109079;-61
2023/01/31 05:22:10;;;;;;;8.20;7.30;;;;;;;21.22;28.46;94654.84;6085248;28;110546;-63
2023/01/31 05:25:15;;;;;;;8.83;8.03;;;;;;;21.30;28.44;94662.06;6084226;28;109307;-61
2023/01/31 05:28:18;;;;;;;7.87;7.10;;;;;;;21.34;28.58;94665.69;6090897;28;111857;-63
2023/01/31 05:31:21;;;;;;;9.23;7.40;;;;;;;21.38;28.53;94663.19;6088373;28;109282;-62
2023/01/31 05:34:27;;;;;;;8.43;7.63;;;;;;;21.41;28.17;94663.34;6079158;28;109852;-62
2023/01/31 05:37:30;;;;;;;7.90;7.20;;;;;;;21.41;28.26;94678.53;6089333;28;109209;-62
2023/01/31 05:40:35;;;;;;;7.50;6.80;;;;;;;21.43;28.07;94676.34;6090559;28;110202;-62
2023/01/31 05:43:42;;;;;;;7.63;6.77;;;;;;;21.43;28.20;94684.31;6089032;28;109584;-62
2023/01/31 05:46:45;;;;;;;7.50;6.80;;;;;;;21.41;28.39;94691.84;6079371;28;110762;-62
2023/01/31 05:49:48;;;;;;;7.97;7.10;;;;;;;21.42;28.39;94680.09;6088780;28;110089;-62
2023/01/31 05:52:53;;;;;;;7.97;7.13;;;;;;;21.30;28.15;94670.03;6089453;28;109441;-62
2023/01/31 05:55:57;;;;;;;7.47;6.77;;;;;;;21.37;28.02;94675.69;6088624;28;109102;-62
2023/01/31 05:59:02;;;;;;;7.90;7.20;;;;;;;21.36;28.34;94690.09;6081792;28;109500;-62
2023/01/31 06:02:05;;;;;;;8.17;7.37;;;;;;;21.34;28.59;94689.63;6089390;28;109200;-62
2023/01/31 06:05:09;;;;;;;7.33;6.63;;;;;;;21.23;27.61;94676.91;6090054;28;110952;-62
2023/01/31 06:08:12;;;;;;;7.40;6.60;;;;;;;21.29;28.49;94681.78;6079774;28;108788;-62
2023/01/31 06:11:17;;;;;;;6.20;5.70;;;;;;;21.24;28.76;94683.81;6089263;28;108938;-62
2023/01/31 06:14:20;;;;;;;6.80;6.00;;;;;;;21.19;28.38;94682.06;6088718;28;110156;-62
2023/01/31 06:17:23;;;;;;;6.73;6.03;;;;;;;21.14;28.82;94680.31;6089082;28;109074;-62
2023/01/31 06:20:27;;;;;;;7.67;6.97;;;;;;;20.99;28.87;94666.59;6078096;28;110179;-62
2023/01/31 06:23:30;;;;;;;6.53;6.00;;;;;;;21.06;28.69;94680.31;6089422;28;110107;-62
2023/01/31 06:26:35;;;;;;;6.57;5.97;;;;;;;21.02;29.07;94692.63;6088875;28;109229;-62
2023/01/31 06:29:38;;;;;;;6.83;5.80;;;;;;;20.96;29.02;94691.16;6088864;28;109093;-62
2023/01/31 06:32:47;;;;;;;6.43;5.83;;;;;;;20.90;29.23;94693.19;6078090;28;110955;-62
2023/01/31 06:35:50;;;;;;;6.73;6.13;;;;;;;20.84;29.35;94695.22;6088798;28;109617;-62
2023/01/31 06:38:53;;;;;;;5.90;5.40;;;;;;;20.80;29.13;94690.78;6088618;28;109231;-62
2023/01/31 06:41:57;;;;;;;7.20;6.07;;;;;;;20.76;29.42;94689.84;6082990;28;109243;-62
2023/01/31 06:45:00;;;;;;;6.20;5.60;;;;;;;20.68;29.74;94691.38;6081860;28;109564;-62
2023/01/31 06:48:04;;;;;;;6.60;6.00;;;;;;;20.71;29.52;94703.25;6088519;28;109265;-62
2023/01/31 06:51:07;;;;;;;6.27;5.77;;;;;;;20.71;29.29;94708.59;6089058;28;108825;-62
2023/01/31 06:54:10;;;;;;;6.57;5.87;;;;;;;20.69;29.60;94706.22;6077247;28;110768;-62
2023/01/31 06:57:14;;;;;;;6.10;5.50;;;;;;;20.68;29.63;94701.22;6088381;28;109658;-62
2023/01/31 07:00:18;;;;;;;6.30;5.70;;;;;;;20.70;29.73;94707.78;6088131;28;109128;-61
2023/01/31 07:03:21;;;;;;;6.17;5.57;;;;;;;20.69;29.89;94713.41;6088587;28;110196;-62
2023/01/31 07:06:27;;;;;;;6.30;5.70;;;;;;;20.73;29.70;94719.69;6077941;28;112100;-61
2023/01/31 07:09:30;;;;;;;6.70;6.10;;;;;;;20.76;29.42;94713.75;6088600;28;109370;-62
2023/01/31 07:12:35;;;;;;;6.17;5.67;;;;;;;20.77;29.59;94710.78;6088026;28;109300;-62
2023/01/31 07:15:38;;;;;;;5.80;5.30;;;;;;;20.78;29.37;94707.03;6082312;28;109098;-62
2023/01/31 07:18:41;;;;;;;5.67;5.17;;;;;;;20.75;29.73;94694.38;6081894;28;109120;-62
2023/01/31 07:21:46;;;;;;;5.47;5.07;;;;;;;20.82;29.37;94715.19;6087747;28;109030;-62
2023/01/31 07:24:49;;;;;;;6.03;5.43;;;;;;;20.86;29.45;94722.28;6087882;28;109114;-62
2023/01/31 07:27:54;;;;;;;6.17;5.57;;;;;;;20.87;29.47;94723.84;6077953;28;108765;-62
2023/01/31 07:31:04;;;;;;;6.00;5.43;;;;;;;20.87;29.24;94723.84;6087872;28;109331;-62
2023/01/31 07:34:07;;;;;;;6.43;5.93;;;;;;;20.65;29.45;94683.19;6088252;28;110091;-62
2023/01/31 07:37:10;;;;;;;6.50;5.90;;;;;;;20.87;29.61;94731.03;6088225;28;110377;-62
2023/01/31 07:40:15;;;;;;;6.07;5.57;;;;;;;20.88;29.42;94728.06;6076728;28;109662;-62
2023/01/31 07:43:20;;;;;;;5.80;5.20;;;;;;;20.86;29.24;94732.91;6087692;28;109139;-62
2023/01/31 07:46:26;;;;;;;5.63;5.13;;;;;;;20.86;29.71;94721.50;6087205;28;110077;-61
2023/01/31 07:49:34;;;;;;;5.90;5.40;;;;;;;20.87;29.52;94726.50;6086357;28;109038;-60
2023/01/31 07:52:37;;;;;;;6.00;5.50;;;;;;;20.86;29.62;94735.56;6079875;28;109197;-62
2023/01/31 07:55:40;;;;;;;6.60;5.90;;;;;;;20.86;29.42;94737.44;6087660;28;109240;-62
2023/01/31 07:58:47;;;;;;;5.67;5.17;;;;;;;20.82;29.52;94725.81;6087950;28;110155;-62
2023/01/31 08:05:11;;;;;;;5.83;5.33;;;;;;;20.84;29.61;94729.00;6087500;28;109309;-62
2023/01/31 08:08:14;;;;;;;4.93;4.53;;;;;;;20.82;29.66;94726.63;6087135;28;109121;-61
2023/01/31 08:11:17;;;;;;;5.53;4.90;;;;;;;20.82;29.63;94720.50;6087814;28;110194;-62
2023/01/31 08:14:24;;;;;;;5.17;4.73;;;;;;;20.80;29.86;94739.44;6078631;28;109272;-61
2023/01/31 08:17:27;;;;;;;5.77;5.27;;;;;;;20.79;29.90;94723.78;6090687;28;109080;-61
2023/01/31 08:20:31;;;;;;;4.50;4.10;;;;;;;20.80;29.79;94723.47;6091747;28;109114;-62
2023/01/31 08:23:36;;;;;;;5.83;5.33;;;;;;;20.78;29.80;94723.00;6091207;28;109313;-61
2023/01/31 08:26:42;;;;;;;5.70;5.20;;;;;;;20.75;29.93;94720.97;6083331;28;109642;-61
2023/01/31 08:29:46;;;;;;;5.40;4.90;;;;;;;20.81;29.94;94721.59;6091941;28;108957;-61
2023/01/31 08:32:49;;;;;;;5.53;5.03;;;;;;;20.79;29.72;94732.53;6091127;28;109002;-61
2023/01/31 08:35:52;;;;;;;5.17;4.67;;;;;;;20.83;29.61;94728.19;6081397;28;109547;-62
2023/01/31 08:38:56;;;;;;;4.87;4.47;;;;;;;20.84;29.71;94731.66;6090075;28;110586;-61
2023/01/31 08:41:59;;;;;;;5.97;5.00;;;;;;;20.84;29.61;94724.47;6091295;28;109017;-61
2023/01/31 08:45:06;;;;;;;5.50;5.00;;;;;;;20.84;29.91;94724.47;6090938;28;109074;-62
2023/01/31 08:48:09;;;;;;;5.33;4.77;;;;;;;20.85;29.91;94727.91;6079307;28;109091;-62
2023/01/31 08:51:14;;;;;;;5.57;5.07;;;;;;;20.83;29.89;94733.50;6090695;28;109137;-61
2023/01/31 08:57:27;;;;;;;4.70;4.30;;;;;;;20.84;29.69;94729.00;6249362;23;110538;-61
2023/01/31 09:00:32;;;;;;;4.80;4.40;;;;;;;20.84;29.99;94731.66;6079691;28;109170;-61
2023/01/31 09:03:36;;;;;;;5.13;4.63;;;;;;;20.88;29.83;94725.41;6568852;22;111258;-60
2023/01/31 09:06:41;;;;;;;4.97;4.50;;;;;;;20.97;30.03;94709.47;6090937;28;109442;-62
2023/01/31 09:09:44;;;;;;;5.20;4.67;;;;;;;20.89;29.83;94700.38;6080756;28;110388;-61
2023/01/31 09:12:48;;;;;;;4.90;4.50;;;;;;;21.09;29.78;94722.25;6090739;28;109089;-62
2023/01/31 09:15:59;;;;;;;5.30;4.80;;;;;;;21.06;29.76;94723.66;6090220;28;109221;-61
2023/01/31 09:19:02;;;;;;;5.13;4.63;;;;;;;21.05;29.70;94713.31;6089822;28;109139;-62
2023/01/31 09:22:05;;;;;;;4.73;4.33;;;;;;;21.07;29.74;94716.44;6079531;28;109251;-61
2023/01/31 09:25:09;;;;;;;5.03;4.63;;;;;;;21.00;30.15;94706.19;6088991;28;109269;-62
2023/01/31 09:28:12;;;;;;;4.07;3.77;;;;;;;21.03;29.94;94705.63;6090534;28;109463;-61
2023/01/31 09:31:19;;;;;;;4.60;4.20;;;;;;;20.98;30.06;94699.63;6090531;28;109849;-62
2023/01/31 09:34:23;;;;;;;4.40;4.00;;;;;;;20.99;29.62;94704.63;6078877;28;109026;-62
2023/01/31 09:37:26;;;;;;;4.40;4.00;;;;;;;21.05;30.13;94710.66;6089961;28;110408;-62
2023/01/31 09:40:32;;;;;;;4.13;3.80;;;;;;;21.08;30.14;94704.72;6090189;28;109598;-62
2023/01/31 09:43:40;;;;;;;4.10;3.80;;;;;;;21.00;30.26;94686.78;6085101;28;110325;-62
2023/01/31 09:46:54;;;;;;;4.63;4.17;;;;;;;21.10;29.90;94694.56;6084271;28;112019;-62
2023/01/31 09:50:04;;;;;;;4.23;3.83;;;;;;;21.10;29.97;94691.88;6089037;28;109401;-62
2023/01/31 09:53:12;;;;;;;4.30;4.00;;;;;;;21.14;30.31;94706.91;6089828;28;108987;-63
2023/01/31 09:56:28;;;;;;;3.97;3.60;;;;;;;21.11;29.82;94693.44;6078682;28;109269;-62
2023/01/31 09:59:42;;;;;;;3.90;3.60;;;;;;;21.12;29.90;94695.03;6089947;28;110129;-62
2023/01/31 10:03:04;;;;;;;4.50;4.10;;;;;;;20.91;29.96;94650.31;6090028;28;110294;-62
2023/01/31 10:06:18;;;;;;;4.10;3.73;;;;;;;21.15;29.89;94679.22;6061941;28;109198;-62
2023/01/31 10:09:29;;;;;;;4.20;3.90;;;;;;;21.18;30.27;94693.81;6060618;28;109865;-63
2023/01/31 10:12:37;;;;;;;4.03;3.67;;;;;;;21.22;30.03;94684.13;6065856;28;109054;-63
2023/01/31 10:15:43;;;;;;;4.30;3.90;;;;;;;21.24;30.13;94684.59;6065940;28;109285;-63
2023/01/31 10:18:54;;;;;;;3.47;3.17;;;;;;;21.26;29.67;94677.06;6054396;28;109107;-62
2023/01/31 10:22:08;;;;;;;3.90;3.60;;;;;;;21.23;29.80;94660.94;6065117;28;110193;-63
2023/01/31 10:25:23;;;;;;;3.70;3.40;;;;;;;21.35;29.97;94677.91;6065469;28;109289;-62
2023/01/31 10:28:35;;;;;;;3.87;3.57;;;;;;;21.40;29.86;94672.41;6065343;28;109407;-63
2023/01/31 10:31:43;;;;;;;4.17;3.87;;;;;;;21.44;29.96;94681.34;6057010;28;111170;-62
2023/01/31 10:34:53;;;;;;;4.07;3.67;;;;;;;21.45;29.78;94663.50;6065206;28;109668;-64
2023/01/31 10:38:02;;;;;;;3.90;3.50;;;;;;;21.42;29.57;94672.09;6064861;28;110554;-62
2023/01/31 10:41:13;;;;;;;4.03;3.73;;;;;;;21.35;29.83;94653.94;6054742;28;110266;-61
2023/01/31 10:44:22;;;;;;;3.60;3.30;;;;;;;21.42;29.95;94670.22;6065170;28;109375;-62
2023/01/31 10:47:31;;;;;;;4.80;3.17;;;;;;;21.41;30.11;94663.34;6065319;28;109837;-62
2023/01/31 10:50:49;;;;;;;3.87;3.57;;;;;;;21.41;30.11;94658.00;6065262;28;110183;-62
2023/01/31 10:54:11;;;;;;;4.27;3.93;;;;;;;21.41;30.02;94663.34;6053724;28;110481;-62
2023/01/31 10:57:17;;;;;;;3.80;3.50;;;;;;;21.43;30.09;94663.81;6065091;28;110163;-62
2023/01/31 11:00:23;;;;;;;3.80;3.50;;;;;;;21.30;30.25;94656.72;6064739;28;109182;-61
2023/01/31 11:03:28;;;;;;;3.03;2.83;;;;;;;21.34;30.52;94663.03;6053984;28;109155;-65
2023/01/31 11:06:37;;;;;;;3.63;3.00;;;;;;;21.36;30.11;94666.16;6064221;28;109790;-63
2023/01/31 11:09:44;;;;;;;3.40;3.10;;;;;;;21.40;30.31;94669.75;6064691;28;110162;-63
2023/01/31 11:12:54;;;;;;;3.47;3.17;;;;;;;21.42;30.95;94675.53;6055243;28;110461;-63
2023/01/31 11:19:27;;;;;;;3.67;3.37;;;;;;;21.39;30.96;94673.50;6184637;23;110595;-62
2023/01/31 11:22:32;;;;;;;3.00;2.80;;;;;;;21.35;31.54;94675.22;6083576;28;111166;-62
2023/01/31 11:25:36;;;;;;;3.90;3.50;;;;;;;21.34;31.02;94679.00;6087986;28;110304;-62
2023/01/31 11:28:41;;;;;;;4.33;3.93;;;;;;;21.32;31.11;94678.50;6087947;28;109178;-61
2023/01/31 11:31:46;;;;;;;3.33;3.03;;;;;;;21.20;31.11;94673.00;6077519;28;109797;-61
2023/01/31 11:34:59;;;;;;;3.30;3.00;;;;;;;21.17;31.10;94676.25;6088108;28;109347;-61
2023/01/31 11:38:21;;;;;;;3.33;3.03;;;;;;;21.12;30.94;94676.41;6088236;28;109342;-61
2023/01/31 11:41:32;;;;;;;3.47;3.17;;;;;;;21.10;31.05;94678.59;6087934;28;108804;-61
2023/01/31 11:44:54;;;;;;;3.10;2.80;;;;;;;21.08;31.05;94660.28;6077905;28;110231;-61
2023/01/31 11:47:58;;;;;;;3.20;2.90;;;;;;;21.06;31.07;94664.34;6088880;28;110285;-61
2023/01/31 11:51:04;;;;;;;3.30;3.00;;;;;;;21.04;31.23;94663.84;6092142;28;109049;-61
2023/01/31 11:54:17;;;;;;;3.00;2.80;;;;;;;21.02;31.01;94664.16;6082354;28;110264;-61
2023/01/31 11:57:24;;;;;;;3.37;3.07;;;;;;;21.01;31.12;94669.78;6090863;28;109336;-61
2023/01/31 12:00:32;;;;;;;2.80;2.60;;;;;;;21.02;31.15;94672.13;6091633;28;109089;-61
2023/01/31 12:03:36;;;;;;;2.90;2.70;;;;;;;21.01;31.08;94665.25;6092365;28;110194;-61
2023/01/31 12:07:00;;;;;;;2.80;2.60;;;;;;;20.74;31.10;94623.66;6081254;28;110325;-62
2023/01/31 12:10:26;;;;;;;2.70;2.50;;;;;;;20.97;31.23;94669.59;6091645;28;109095;-61
2023/01/31 12:13:29;;;;;;;2.73;2.53;;;;;;;20.97;31.30;94674.13;6091744;28;109334;-60
2023/01/31 12:16:33;;;;;;;3.03;2.83;;;;;;;20.95;31.16;94673.66;6086437;28;109265;-61
2023/01/31 12:19:50;;;;;;;2.90;2.70;;;;;;;20.95;31.05;94670.97;6062648;28;111310;-61
2023/01/31 12:22:57;;;;;;;2.73;2.53;;;;;;;;;;6067880;28;109077;-61
2023/01/31 12:26:16;;;;;;;3.07;2.77;;;;;;;20.93;31.18;94676.63;6067921;28;109153;-61
2023/01/31 12:29:57;;;;;;;2.83;2.63;;;;;;;20.92;31.20;94681.16;6055608;28;109523;-62
2023/01/31 12:33:11;;;;;;;2.97;2.57;;;;;;;20.92;30.99;94683.81;6052060;28;110303;-61
2023/01/31 12:36:30;;;;;;;2.90;2.70;;;;;;;20.91;31.25;94682.25;6067555;28;109045;-61
2023/01/31 12:39:51;;;;;;;3.03;2.73;;;;;;;20.91;31.06;94676.91;6058961;28;110339;-61
2023/01/31 12:42:58;;;;;;;2.63;2.43;;;;;;;20.88;31.36;94666.91;6067582;28;110414;-62
2023/01/31 12:46:14;;;;;;;2.80;2.60;;;;;;;20.89;30.93;94670.34;6067409;28;109067;-60
2023/01/31 12:49:46;;;;;;;2.60;2.40;;;;;;;21.02;30.94;94674.00;6067385;28;109168;-61
2023/01/31 12:53:12;;;;;;;2.87;2.60;;;;;;;21.05;31.61;94670.75;6056629;28;110810;-60
2023/01/31 12:56:29;;;;;;;2.83;2.63;;;;;;;21.08;31.26;94670.91;6067153;28;109526;-61
2023/01/31 12:59:46;;;;;;;2.40;2.30;;;;;;;21.04;31.21;94664.63;6067025;28;109082;-61
2023/01/31 13:03:03;;;;;;;2.90;2.60;;;;;;;21.09;31.76;94666.38;6054998;28;109024;-62
2023/01/31 13:06:14;;;;;;;2.50;2.30;;;;;;;21.08;31.36;94676.22;6067432;28;108577;-60
2023/01/31 13:09:21;;;;;;;2.73;2.53;;;;;;;21.13;31.84;94677.97;6067397;28;110181;-60
2023/01/31 13:12:28;;;;;;;2.57;2.37;;;;;;;21.13;31.76;94688.59;6067173;28;109259;-60
2023/01/31 13:15:42;;;;;;;2.40;2.20;;;;;;;21.15;32.07;94687.19;6056253;28;110123;-60
2023/01/31 13:18:49;;;;;;;2.80;2.60;;;;;;;21.10;31.93;94690.00;6066531;28;109432;-62
2023/01/31 13:21:58;;;;;;;2.47;2.27;;;;;;;21.01;32.31;94696.38;6065309;28;109325;-61
2023/01/31 13:25:15;;;;;;;2.40;2.20;;;;;;;21.06;31.92;94690.94;6059373;28;110594;-61
2023/01/31 13:28:25;;;;;;;2.47;2.27;;;;;;;21.08;32.07;94691.41;6066731;28;109264;-61
2023/01/31 13:31:35;;;;;;;2.50;2.30;;;;;;;21.11;32.13;94701.44;6066610;28;108867;-61
2023/01/31 13:34:44;;;;;;;2.30;2.20;;;;;;;21.04;32.43;94687.78;6065646;28;109057;-60
2023/01/31 13:37:59;;;;;;;2.00;1.90;;;;;;;20.98;32.19;94695.09;6054914;28;109207;-61
2023/01/31 13:41:04;;;;;;;2.40;2.20;;;;;;;21.00;32.26;94705.41;6066402;28;109745;-61
2023/01/31 13:44:13;;;;;;;3.00;2.20;;;;;;;20.93;32.43;94698.69;6066650;28;111178;-60
2023/01/31 13:47:24;;;;;;;2.60;2.40;;;;;;;20.92;32.00;94706.97;6061286;28;109294;-60
2023/01/31 13:50:35;;;;;;;2.40;2.20;;;;;;;20.88;32.23;94703.34;6060544;28;110051;-60
2023/01/31 13:53:48;;;;;;;2.50;2.30;;;;;;;20.87;32.39;94701.78;6066377;28;110420;-61
2023/01/31 13:56:54;;;;;;;2.23;2.10;;;;;;;20.73;32.17;94687.78;6066565;28;109827;-61
2023/01/31 14:00:05;;;;;;;2.83;2.63;;;;;;;20.85;32.27;94702.09;6054552;28;109415;-61
2023/01/31 14:03:15;;;;;;;2.50;2.30;;;;;;;20.82;32.02;94705.34;6066076;28;109207;-61
2023/01/31 14:06:18;;;;;;;2.43;2.23;;;;;;;20.81;31.92;94708.31;6065414;28;109604;-62
2023/01/31 14:09:26;;;;;;;2.33;2.13;;;;;;;20.82;31.96;94709.88;6065905;28;109239;-62
2023/01/31 14:12:34;;;;;;;2.63;2.43;;;;;;;20.82;32.19;94717.84;6053977;28;110220;-60
2023/01/31 14:15:49;;;;;;;2.50;2.30;;;;;;;20.80;32.12;94718.16;6065403;28;109056;-61
2023/01/31 14:18:53;;;;;;;2.40;2.20;;;;;;;20.80;32.11;94718.16;6065114;28;109100;-60
2023/01/31 14:22:13;;;;;;;1.77;1.63;;;;;;;20.78;32.07;94715.03;6056280;28;109167;-63
2023/01/31 14:25:16;;;;;;;2.00;1.90;;;;;;;20.81;32.10;94717.06;6049068;28;109389;-61
2023/01/31 14:28:19;;;;;;;2.47;1.90;;;;;;;20.81;31.95;94718.94;6066139;28;108844;-61
2023/01/31 14:31:24;;;;;;;1.90;1.80;;;;;;;20.79;32.12;94716.59;6064450;28;109183;-61
2023/01/31 14:34:30;;;;;;;1.77;1.67;;;;;;;20.80;32.06;94718.16;6054676;28;111071;-62
2023/01/31 14:37:46;;;;;;;2.23;2.00;;;;;;;20.76;31.91;94706.56;6064594;28;109209;-60
2023/01/31 14:41:01;;;;;;;2.23;2.00;;;;;;;20.82;31.78;94715.97;6065106;28;109278;-60